KPVC

Provincetown Municipal Airport

Provincetown, Massachusetts, USA
METAR KPVC 231056Z AUTO 15005KT 10SM OVC095 08/04 A3017 RMK AO2 SLP215 T00830039
Observed Flight Rules
Oct-23 @ 10:56 UTC (53 minutes ago) Visual Flight Rules
Wind Visibility Clouds
150° at 5 knots 10 miles
  • Overcast at 9,500' AGL
Temperatures Readings
Current 8°C / 46°F
Dewpoint 4°C / 39°F
Humidity 76%
Altimeter 30.17" Hg
Pressure 1021.5 hPa
Elevation 2
METAR KPVC 231056Z AUTO 15005KT 10SM OVC095 08/04 A3017 RMK AO2 SLP215 T00830039
Observed Flight Rules
Oct-23 @ 10:56 UTC
(53 minutes ago)
VFR
Wind Visibility
150° at 5 knots 10 miles
Clouds
  • Overcast at 9,500' AGL
Temperature Dewpoint
8°C / 46°F 4°C / 39°F
Humidity Altimeter Pressure
76% 30.17" Hg 1021.5 hPa